Time,TemperatureF,DewpointF,PressureIn,WindDirection,WindDirectionDegrees,WindSpeedMPH,WindSpeedGustMPH,Humidity,HourlyPrecipIn,Conditions,Clouds,dailyrainin,SoftwareType,DateUTC
2013-10-02 00:09:00,58.4,29.4,29.92,ESE,121,0.0,0.0,33,0.00,,,0.00,Wunderground v.1.15,2013-10-02 06:09:00,
2013-10-02 00:19:00,57.9,30.4,29.92,SSW,211,0.0,0.0,35,0.00,,,0.00,Wunderground v.1.15,2013-10-02 06:19:00,
2013-10-02 00:29:00,56.9,31.5,29.92,SSW,211,0.0,0.0,38,0.00,,,0.00,Wunderground v.1.15,2013-10-02 06:29:00,
2013-10-02 00:39:00,55.9,30.6,29.92,SSW,211,0.0,0.0,38,0.00,,,0.00,Wunderground v.1.15,2013-10-02 06:39:00,
2013-10-02 00:44:00,55.3,30.7,29.92,SSW,211,0.0,0.0,39,0.00,,,0.00,Wunderground v.1.15,2013-10-02 06:44:00,
2013-10-02 00:54:00,54.3,30.5,29.92,SSW,210,0.0,0.0,40,0.00,,,0.00,Wunderground v.1.15,2013-10-02 06:54:00,
2013-10-02 00:59:00,54.1,28.4,29.92,SSW,210,0.0,0.0,37,0.00,,,0.00,Wunderground v.1.15,2013-10-02 06:59:00,
2013-10-02 01:09:00,54.0,30.2,29.92,SSW,208,0.0,0.0,40,0.00,,,0.00,Wunderground v.1.15,2013-10-02 07:09:00,
2013-10-02 01:19:00,54.4,29.9,29.93,WNW,284,0.0,0.0,39,0.00,,,0.00,Wunderground v.1.15,2013-10-02 07:19:00,
2013-10-02 01:29:00,54.7,30.2,29.92,NW,322,0.0,0.0,39,0.00,,,0.00,Wunderground v.1.15,2013-10-02 07:29:00,
2013-10-02 01:39:00,53.7,29.3,29.93,NW,322,0.0,0.0,39,0.00,,,0.00,Wunderground v.1.15,2013-10-02 07:39:00,
2013-10-02 01:44:00,53.3,29.6,29.93,NW,322,0.0,0.0,40,0.00,,,0.00,Wunderground v.1.15,2013-10-02 07:44:00,
2013-10-02 01:54:00,53.0,29.3,29.93,NW,322,0.0,0.0,40,0.00,,,0.00,Wunderground v.1.15,2013-10-02 07:54:00,
2013-10-02 01:59:00,52.8,29.1,29.93,NW,322,0.0,0.0,40,0.00,,,0.00,Wunderground v.1.15,2013-10-02 07:59:00,
2013-10-02 02:09:00,53.4,31.4,29.93,ESE,117,0.0,0.0,43,0.00,,,0.00,Wunderground v.1.15,2013-10-02 08:09:00,
2013-10-02 02:18:00,52.8,31.5,29.93,NE,45,0.0,0.0,44,0.00,,,0.00,Wunderground v.1.15,2013-10-02 08:18:00,
2013-10-02 02:28:00,52.0,30.7,29.93,NE,53,0.0,0.0,44,0.00,,,0.00,Wunderground v.1.15,2013-10-02 08:28:00,
2013-10-02 02:38:00,51.9,31.2,29.93,NE,53,0.0,0.0,45,0.00,,,0.00,Wunderground v.1.15,2013-10-02 08:38:00,
2013-10-02 02:44:00,51.6,31.5,29.94,NE,53,0.0,0.0,46,0.00,,,0.00,Wunderground v.1.15,2013-10-02 08:44:00,
2013-10-02 02:54:00,50.8,32.3,29.93,NE,51,0.0,0.0,49,0.00,,,0.00,Wunderground v.1.15,2013-10-02 08:54:00,
2013-10-02 02:59:00,50.5,31.5,29.93,NE,53,0.0,0.0,48,0.00,,,0.00,Wunderground v.1.15,2013-10-02 08:59:00,
2013-10-02 03:08:00,50.0,32.6,29.94,ESE,117,0.0,0.0,51,0.00,,,0.00,Wunderground v.1.15,2013-10-02 09:08:00,
2013-10-02 03:18:00,49.6,32.2,29.94,ESE,117,0.0,0.0,51,0.00,,,0.00,Wunderground v.1.15,2013-10-02 09:18:00,
2013-10-02 03:28:00,50.8,32.3,29.94,ESE,118,0.0,1.0,49,0.00,,,0.00,Wunderground v.1.15,2013-10-02 09:28:00,
2013-10-02 03:39:00,51.3,31.7,29.93,ESE,121,0.0,0.0,47,0.00,,,0.00,Wunderground v.1.15,2013-10-02 09:39:00,
2013-10-02 03:48:00,51.3,31.7,29.93,ESE,121,0.0,0.0,47,0.00,,,0.00,Wunderground v.1.15,2013-10-02 09:48:00,
2013-10-02 03:59:00,50.3,32.4,29.93,ESE,121,0.0,0.0,50,0.00,,,0.00,Wunderground v.1.15,2013-10-02 09:59:00,
2013-10-02 04:08:00,50.3,32.8,29.93,SSE,159,0.0,0.0,51,0.00,,,0.00,Wunderground v.1.15,2013-10-02 10:08:00,
2013-10-02 04:18:00,50.2,31.8,29.94,SE,146,0.0,0.0,49,0.00,,,0.00,Wunderground v.1.15,2013-10-02 10:18:00,
2013-10-02 04:28:00,49.6,32.7,29.94,SE,146,0.0,0.0,52,0.00,,,0.00,Wunderground v.1.15,2013-10-02 10:28:00,
2013-10-02 04:33:00,49.0,32.1,29.94,SE,146,0.0,0.0,52,0.00,,,0.00,Wunderground v.1.15,2013-10-02 10:33:00,
2013-10-02 04:43:00,48.4,32.5,29.95,SE,146,0.0,0.0,54,0.00,,,0.00,Wunderground v.1.15,2013-10-02 10:43:00,
2013-10-02 04:53:00,47.9,32.9,29.95,SE,146,0.0,0.0,56,0.00,,,0.00,Wunderground v.1.15,2013-10-02 10:53:00,
2013-10-02 04:58:00,47.5,33.0,29.95,SE,146,0.0,0.0,57,0.00,,,0.00,Wunderground v.1.15,2013-10-02 10:58:00,
2013-10-02 05:08:00,47.4,32.9,29.95,SE,146,0.0,0.0,57,0.00,,,0.00,Wunderground v.1.15,2013-10-02 11:08:00,
2013-10-02 05:18:00,47.5,33.0,29.95,SE,129,0.0,0.0,57,0.00,,,0.00,Wunderground v.1.15,2013-10-02 11:18:00,
2013-10-02 05:28:00,46.7,32.7,29.96,SE,129,0.0,0.0,58,0.00,,,0.00,Wunderground v.1.15,2013-10-02 11:28:00,
2013-10-02 05:38:00,48.3,32.9,29.96,ESE,118,1.0,2.0,55,0.00,,,0.00,Wunderground v.1.15,2013-10-02 11:38:00,
2013-10-02 05:48:00,48.4,32.5,29.97,NNW,347,1.0,1.0,54,0.00,,,0.00,Wunderground v.1.15,2013-10-02 11:48:00,
2013-10-02 05:58:00,47.3,32.8,29.97,NNW,347,0.0,0.0,57,0.00,,,0.00,Wunderground v.1.15,2013-10-02 11:58:00,
2013-10-02 06:08:00,47.0,33.0,29.97,SE,124,0.0,0.0,58,0.00,,,0.00,Wunderground v.1.15,2013-10-02 12:08:00,
2013-10-02 06:18:00,47.1,32.6,29.97,East,99,0.0,0.0,57,0.00,,,0.00,Wunderground v.1.15,2013-10-02 12:18:00,
2013-10-02 06:28:00,46.6,32.6,29.97,ESE,111,0.0,0.0,58,0.00,,,0.00,Wunderground v.1.15,2013-10-02 12:28:00,
2013-10-02 06:33:00,46.4,32.0,29.97,ESE,111,0.0,0.0,57,0.00,,,0.00,Wunderground v.1.15,2013-10-02 12:33:00,
2013-10-02 06:43:00,45.9,31.9,29.97,ESE,111,0.0,0.0,58,0.00,,,0.00,Wunderground v.1.15,2013-10-02 12:43:00,
2013-10-02 06:53:00,46.0,30.7,29.98,ESE,121,0.0,0.0,55,0.00,,,0.00,Wunderground v.1.15,2013-10-02 12:53:00,
2013-10-02 06:58:00,46.3,31.0,29.98,ESE,122,0.0,0.0,55,0.00,,,0.00,Wunderground v.1.15,2013-10-02 12:58:00,
2013-10-02 07:08:00,46.9,30.6,29.98,ESE,122,0.0,0.0,53,0.00,,,0.00,Wunderground v.1.15,2013-10-02 13:08:00,
2013-10-02 07:18:00,46.6,31.3,29.99,SSW,197,0.0,0.0,55,0.00,,,0.00,Wunderground v.1.15,2013-10-02 13:18:00,
2013-10-02 07:28:00,46.1,31.3,29.99,SSW,199,0.0,0.0,56,0.00,,,0.00,Wunderground v.1.15,2013-10-02 13:28:00,
2013-10-02 07:38:00,46.3,32.3,30.00,SSW,197,0.0,0.0,58,0.00,,,0.00,Wunderground v.1.15,2013-10-02 13:38:00,
2013-10-02 07:48:00,46.0,32.5,30.00,SSW,197,0.0,0.0,59,0.00,,,0.00,Wunderground v.1.15,2013-10-02 13:48:00,
2013-10-02 07:58:00,46.6,32.6,30.01,SSW,197,0.0,0.0,58,0.00,,,0.00,Wunderground v.1.15,2013-10-02 13:58:00,
2013-10-02 08:08:00,48.3,32.4,30.01,SSW,197,0.0,0.0,54,0.00,,,0.00,Wunderground v.1.15,2013-10-02 14:08:00,
2013-10-02 08:18:00,51.0,32.0,30.01,SE,136,0.0,0.0,48,0.00,,,0.00,Wunderground v.1.15,2013-10-02 14:18:00,
2013-10-02 08:28:00,53.7,31.1,30.01,SE,125,0.0,0.0,42,0.00,,,0.00,Wunderground v.1.15,2013-10-02 14:28:00,
2013-10-02 08:38:00,55.2,31.9,30.01,SE,136,0.0,0.0,41,0.00,,,0.00,Wunderground v.1.15,2013-10-02 14:38:00,
2013-10-02 08:48:00,57.8,31.7,30.01,SE,127,0.0,0.0,37,0.00,,,0.00,Wunderground v.1.15,2013-10-02 14:48:00,
2013-10-02 08:58:00,60.9,30.8,30.01,SE,145,0.0,2.0,32,0.00,,,0.00,Wunderground v.1.15,2013-10-02 14:58:00,
2013-10-02 09:08:00,62.5,30.6,30.01,SSE,155,1.0,1.0,30,0.00,,,0.00,Wunderground v.1.15,2013-10-02 15:08:00,
2013-10-02 09:18:00,63.9,29.2,30.01,SSE,158,2.0,2.0,27,0.00,,,0.00,Wunderground v.1.15,2013-10-02 15:18:00,
2013-10-02 09:28:00,64.5,27.9,30.02,South,187,2.0,2.0,25,0.00,,,0.00,Wunderground v.1.15,2013-10-02 15:28:00,
2013-10-02 09:38:00,65.4,28.6,30.01,South,183,1.0,2.0,25,0.00,,,0.00,Wunderground v.1.15,2013-10-02 15:38:00,
2013-10-02 09:43:00,66.3,29.4,30.01,SSW,195,1.0,3.0,25,0.00,,,0.00,Wunderground v.1.15,2013-10-02 15:43:00,
2013-10-02 09:53:00,67.3,27.1,30.01,SSE,158,1.0,2.0,22,0.00,,,0.00,Wunderground v.1.15,2013-10-02 15:53:00,
2013-10-02 09:58:00,67.0,26.9,30.01,SE,146,2.0,3.0,22,0.00,,,0.00,Wunderground v.1.15,2013-10-02 15:58:00,
2013-10-02 10:08:00,67.0,30.0,30.01,SE,144,3.0,3.0,25,0.00,,,0.00,Wunderground v.1.15,2013-10-02 16:08:00,
2013-10-02 10:18:00,67.1,28.0,30.01,South,182,3.0,5.0,23,0.00,,,0.00,Wunderground v.1.15,2013-10-02 16:18:00,
2013-10-02 10:28:00,68.3,29.0,30.01,SW,223,1.0,1.0,23,0.00,,,0.00,Wunderground v.1.15,2013-10-02 16:28:00,
2013-10-02 10:38:00,68.2,26.7,30.01,SSE,152,3.0,3.0,21,0.00,,,0.00,Wunderground v.1.15,2013-10-02 16:38:00,
2013-10-02 10:48:00,69.4,28.9,30.01,SW,221,1.0,1.0,22,0.00,,,0.00,Wunderground v.1.15,2013-10-02 16:48:00,
2013-10-02 10:58:00,70.4,28.6,30.01,SW,219,1.0,1.0,21,0.00,,,0.00,Wunderground v.1.15,2013-10-02 16:58:00,
2013-10-02 11:03:00,70.5,27.5,30.00,WSW,243,1.0,1.0,20,0.00,,,0.00,Wunderground v.1.15,2013-10-02 17:03:00,
2013-10-02 11:13:00,71.0,27.9,30.00,South,191,1.0,1.0,20,0.00,,,0.00,Wunderground v.1.15,2013-10-02 17:13:00,
2013-10-02 11:23:00,71.0,26.6,30.00,SSW,200,2.0,5.0,19,0.00,,,0.00,Wunderground v.1.15,2013-10-02 17:23:00,
2013-10-02 11:33:00,71.5,28.3,29.99,SSE,151,2.0,4.0,20,0.00,,,0.00,Wunderground v.1.15,2013-10-02 17:33:00,
2013-10-02 11:43:00,71.4,27.0,29.99,NW,323,2.0,2.0,19,0.00,,,0.00,Wunderground v.1.15,2013-10-02 17:43:00,
2013-10-02 11:53:00,72.0,26.1,29.98,West,268,2.0,2.0,18,0.00,,,0.00,Wunderground v.1.15,2013-10-02 17:53:00,
2013-10-02 11:58:00,71.4,27.0,29.98,NE,41,2.0,2.0,19,0.00,,,0.00,Wunderground v.1.15,2013-10-02 17:58:00,
2013-10-02 12:08:00,72.0,28.7,29.97,SE,128,2.0,2.0,20,0.00,,,0.00,Wunderground v.1.15,2013-10-02 18:08:00,
2013-10-02 12:18:00,72.7,25.3,29.97,SE,132,1.0,2.0,17,0.00,,,0.00,Wunderground v.1.15,2013-10-02 18:18:00,
2013-10-02 12:28:00,73.5,29.9,29.96,SW,214,1.0,4.0,20,0.00,,,0.00,Wunderground v.1.15,2013-10-02 18:28:00,
2013-10-02 12:38:00,74.4,26.7,29.96,WNW,300,2.0,2.0,17,0.00,,,0.00,Wunderground v.1.15,2013-10-02 18:38:00,
2013-10-02 12:48:00,73.8,27.6,29.95,SSW,197,1.0,1.0,18,0.00,,,0.00,Wunderground v.1.15,2013-10-02 18:48:00,
2013-10-02 12:58:00,75.2,27.4,29.95,SSE,148,1.0,2.0,17,0.00,,,0.00,Wunderground v.1.15,2013-10-02 18:58:00,
2013-10-02 13:03:00,75.7,27.8,29.95,ESE,103,1.0,2.0,17,0.00,,,0.00,Wunderground v.1.15,2013-10-02 19:03:00,
2013-10-02 13:13:00,76.0,25.0,29.94,WNW,301,2.0,3.0,15,0.00,,,0.00,Wunderground v.1.15,2013-10-02 19:13:00,
2013-10-02 13:23:00,75.6,26.2,29.93,WNW,300,2.0,3.0,16,0.00,,,0.00,Wunderground v.1.15,2013-10-02 19:23:00,
2013-10-02 13:33:00,75.7,27.8,29.93,West,271,2.0,3.0,17,0.00,,,0.00,Wunderground v.1.15,2013-10-02 19:33:00,
2013-10-02 13:43:00,76.4,26.9,29.92,WSW,256,2.0,4.0,16,0.00,,,0.00,Wunderground v.1.15,2013-10-02 19:43:00,
2013-10-02 13:53:00,76.7,22.1,29.91,SSE,163,2.0,2.0,13,0.00,,,0.00,Wunderground v.1.15,2013-10-02 19:53:00,
2013-10-02 13:58:00,76.9,25.7,29.91,ESE,122,2.0,2.0,15,0.00,,,0.00,Wunderground v.1.15,2013-10-02 19:58:00,
2013-10-02 14:08:00,77.6,22.8,29.91,SSE,152,2.0,4.0,13,0.00,,,0.00,Wunderground v.1.15,2013-10-02 20:08:00,
2013-10-02 14:18:00,78.1,23.2,29.90,South,186,1.0,3.0,13,0.00,,,0.00,Wunderground v.1.15,2013-10-02 20:18:00,
2013-10-02 14:28:00,78.1,23.2,29.90,East,96,2.0,2.0,13,0.00,,,0.00,Wunderground v.1.15,2013-10-02 20:28:00,
2013-10-02 14:38:00,77.9,23.1,29.89,NNW,337,1.0,1.0,13,0.00,,,0.00,Wunderground v.1.15,2013-10-02 20:38:00,
2013-10-02 14:48:00,77.4,22.7,29.89,North,358,1.0,1.0,13,0.00,,,0.00,Wunderground v.1.15,2013-10-02 20:48:00,
2013-10-02 14:58:00,77.9,24.8,29.89,SE,143,1.0,6.0,14,0.00,,,0.00,Wunderground v.1.15,2013-10-02 20:58:00,
2013-10-02 15:08:00,77.9,23.1,29.88,NW,322,2.0,2.0,13,0.00,,,0.00,Wunderground v.1.15,2013-10-02 21:08:00,
2013-10-02 15:18:00,77.8,26.4,29.88,SSE,164,2.0,2.0,15,0.00,,,0.00,Wunderground v.1.15,2013-10-02 21:18:00,
2013-10-02 15:28:00,78.9,23.8,29.88,SSE,166,2.0,4.0,13,0.00,,,0.00,Wunderground v.1.15,2013-10-02 21:28:00,
2013-10-02 15:38:00,78.9,21.9,29.87,South,190,2.0,2.0,12,0.00,,,0.00,Wunderground v.1.15,2013-10-02 21:38:00,
2013-10-02 15:43:00,79.1,24.0,29.87,NW,305,2.0,5.0,13,0.00,,,0.00,Wunderground v.1.15,2013-10-02 21:43:00,
2013-10-02 15:53:00,78.6,23.6,29.87,WNW,301,1.0,2.0,13,0.00,,,0.00,Wunderground v.1.15,2013-10-02 21:53:00,
2013-10-02 15:58:00,78.3,21.5,29.87,West,260,2.0,2.0,12,0.00,,,0.00,Wunderground v.1.15,2013-10-02 21:58:00,
2013-10-02 16:08:00,78.9,23.8,29.86,SSW,201,1.0,1.0,13,0.00,,,0.00,Wunderground v.1.15,2013-10-02 22:08:00,
2013-10-02 16:18:00,79.0,22.0,29.86,ESE,120,3.0,3.0,12,0.00,,,0.00,Wunderground v.1.15,2013-10-02 22:18:00,
2013-10-02 16:28:00,79.8,24.6,29.85,SW,215,2.0,2.0,13,0.00,,,0.00,Wunderground v.1.15,2013-10-02 22:28:00,
2013-10-02 16:38:00,79.9,26.4,29.85,WSW,256,2.0,2.0,14,0.00,,,0.00,Wunderground v.1.15,2013-10-02 22:38:00,
2013-10-02 16:48:00,80.2,26.7,29.84,SSW,197,3.0,3.0,14,0.00,,,0.00,Wunderground v.1.15,2013-10-02 22:48:00,
2013-10-02 16:58:00,80.8,27.1,29.84,SSW,205,1.0,1.0,14,0.00,,,0.00,Wunderground v.1.15,2013-10-02 22:58:00,
2013-10-02 17:08:00,80.5,26.9,29.84,SE,128,2.0,2.0,14,0.00,,,0.00,Wunderground v.1.15,2013-10-02 23:08:00,
2013-10-02 17:18:00,80.3,26.7,29.84,SSE,150,3.0,3.0,14,0.00,,,0.00,Wunderground v.1.15,2013-10-02 23:18:00,
2013-10-02 17:28:00,80.2,28.3,29.84,SSE,165,1.0,3.0,15,0.00,,,0.00,Wunderground v.1.15,2013-10-02 23:28:00,
2013-10-02 17:38:00,79.9,28.1,29.83,SSW,198,3.0,3.0,15,0.00,,,0.00,Wunderground v.1.15,2013-10-02 23:38:00,
2013-10-02 17:43:00,79.9,29.7,29.83,SE,136,1.0,3.0,16,0.00,,,0.00,Wunderground v.1.15,2013-10-02 23:43:00,
2013-10-02 17:53:00,79.5,27.8,29.83,SSE,149,2.0,2.0,15,0.00,,,0.00,Wunderground v.1.15,2013-10-02 23:53:00,
2013-10-02 17:58:00,79.3,29.2,29.83,South,187,1.0,2.0,16,0.00,,,0.00,Wunderground v.1.15,2013-10-02 23:58:00,
2013-10-02 18:03:00,79.1,29.0,29.83,SSE,163,1.0,2.0,16,0.00,,,0.00,Wunderground v.1.15,2013-10-03 00:03:00,
2013-10-02 18:13:00,77.9,28.1,29.83,SSE,148,2.0,4.0,16,0.00,,,0.00,Wunderground v.1.15,2013-10-03 00:13:00,
2013-10-02 18:23:00,77.4,29.1,29.83,SE,145,2.0,3.0,17,0.00,,,0.00,Wunderground v.1.15,2013-10-03 00:23:00,
2013-10-02 18:28:00,77.1,28.9,29.83,SE,143,2.0,2.0,17,0.00,,,0.00,Wunderground v.1.15,2013-10-03 00:28:00,
2013-10-02 18:38:00,75.9,29.3,29.83,SE,141,2.0,3.0,18,0.00,,,0.00,Wunderground v.1.15,2013-10-03 00:38:00,
2013-10-02 18:48:00,74.5,29.5,29.83,SE,135,2.0,3.0,19,0.00,,,0.00,Wunderground v.1.15,2013-10-03 00:48:00,
2013-10-02 18:58:00,73.5,29.9,29.83,SE,139,2.0,2.0,20,0.00,,,0.00,Wunderground v.1.15,2013-10-03 00:58:00,
2013-10-02 19:08:00,72.8,29.4,29.84,SE,135,3.0,3.0,20,0.00,,,0.00,Wunderground v.1.15,2013-10-03 01:08:00,
2013-10-02 19:13:00,72.5,30.3,29.84,SE,135,2.0,3.0,21,0.00,,,0.00,Wunderground v.1.15,2013-10-03 01:13:00,
2013-10-02 19:23:00,71.9,29.8,29.84,ESE,122,2.0,2.0,21,0.00,,,0.00,Wunderground v.1.15,2013-10-03 01:23:00,
2013-10-02 19:33:00,71.4,30.5,29.84,SE,141,2.0,2.0,22,0.00,,,0.00,Wunderground v.1.15,2013-10-03 01:33:00,
2013-10-02 19:43:00,70.8,31.1,29.85,SE,139,2.0,2.0,23,0.00,,,0.00,Wunderground v.1.15,2013-10-03 01:43:00,
2013-10-02 19:53:00,70.2,30.6,29.85,SE,128,2.0,2.0,23,0.00,,,0.00,Wunderground v.1.15,2013-10-03 01:53:00,
2013-10-02 19:58:00,69.8,31.4,29.85,ESE,121,2.0,2.0,24,0.00,,,0.00,Wunderground v.1.15,2013-10-03 01:58:00,
2013-10-02 20:08:00,68.7,31.4,29.86,ESE,123,0.0,1.0,25,0.00,,,0.00,Wunderground v.1.15,2013-10-03 02:08:00,
2013-10-02 20:18:00,67.6,32.4,29.86,ESE,122,0.0,0.0,27,0.00,,,0.00,Wunderground v.1.15,2013-10-03 02:18:00,
2013-10-02 20:28:00,66.8,32.6,29.86,SE,129,0.0,0.0,28,0.00,,,0.00,Wunderground v.1.15,2013-10-03 02:28:00,
2013-10-02 20:33:00,66.6,32.5,29.86,ESE,117,0.0,0.0,28,0.00,,,0.00,Wunderground v.1.15,2013-10-03 02:33:00,
2013-10-02 20:43:00,66.2,32.1,29.86,SE,124,0.0,0.0,28,0.00,,,0.00,Wunderground v.1.15,2013-10-03 02:43:00,
2013-10-02 20:53:00,66.0,31.9,29.86,ESE,110,0.0,0.0,28,0.00,,,0.00,Wunderground v.1.15,2013-10-03 02:53:00,
2013-10-02 20:58:00,65.9,31.8,29.86,ESE,118,0.0,0.0,28,0.00,,,0.00,Wunderground v.1.15,2013-10-03 02:58:00,
2013-10-02 21:08:00,65.5,32.4,29.86,ESE,120,0.0,0.0,29,0.00,,,0.00,Wunderground v.1.15,2013-10-03 03:08:00,
2013-10-02 21:13:00,65.2,32.1,29.86,SE,132,0.0,0.0,29,0.00,,,0.00,Wunderground v.1.15,2013-10-03 03:13:00,
2013-10-02 21:23:00,64.7,31.7,29.86,ESE,117,0.0,0.0,29,0.00,,,0.00,Wunderground v.1.15,2013-10-03 03:23:00,
2013-10-02 21:33:00,64.7,31.7,29.86,ESE,115,0.0,1.0,29,0.00,,,0.00,Wunderground v.1.15,2013-10-03 03:33:00,
2013-10-02 21:43:00,65.7,31.7,29.87,SE,142,2.0,2.0,28,0.00,,,0.00,Wunderground v.1.15,2013-10-03 03:43:00,
2013-10-02 21:53:00,66.2,31.2,29.87,SE,142,2.0,2.0,27,0.00,,,0.00,Wunderground v.1.15,2013-10-03 03:53:00,
2013-10-02 21:58:00,66.2,31.2,29.87,ESE,123,2.0,2.0,27,0.00,,,0.00,Wunderground v.1.15,2013-10-03 03:58:00,
2013-10-02 22:03:00,66.3,31.3,29.87,ESE,121,2.0,2.0,27,0.00,,,0.00,Wunderground v.1.15,2013-10-03 04:03:00,
2013-10-02 22:08:00,66.1,31.1,29.87,ESE,121,2.0,2.0,27,0.00,,,0.00,Wunderground v.1.15,2013-10-03 04:08:00,
2013-10-02 22:13:00,65.8,31.8,29.87,SE,141,1.0,2.0,28,0.00,,,0.00,Wunderground v.1.15,2013-10-03 04:13:00,
2013-10-02 22:23:00,64.6,31.6,29.87,SE,125,0.0,1.0,29,0.00,,,0.00,Wunderground v.1.15,2013-10-03 04:23:00,
2013-10-02 22:28:00,64.1,32.8,29.87,SE,129,0.0,0.0,31,0.00,,,0.00,Wunderground v.1.15,2013-10-03 04:28:00,
2013-10-02 22:33:00,63.6,31.6,29.87,ESE,116,0.0,0.0,30,0.00,,,0.00,Wunderground v.1.15,2013-10-03 04:33:00,
2013-10-02 22:43:00,62.8,32.5,29.87,ESE,118,0.0,0.0,32,0.00,,,0.00,Wunderground v.1.15,2013-10-03 04:43:00,
2013-10-02 22:48:00,62.6,32.3,29.87,SE,124,0.0,0.0,32,0.00,,,0.00,Wunderground v.1.15,2013-10-03 04:48:00,
2013-10-02 22:58:00,62.6,32.3,29.87,East,100,0.0,0.0,32,0.00,,,0.00,Wunderground v.1.15,2013-10-03 04:58:00,
2013-10-02 23:08:00,62.9,31.8,29.86,SE,124,1.0,1.0,31,0.00,,,0.00,Wunderground v.1.15,2013-10-03 05:08:00,
2013-10-02 23:18:00,63.3,31.3,29.87,SE,131,1.0,2.0,30,0.00,,,0.00,Wunderground v.1.15,2013-10-03 05:18:00,
2013-10-02 23:28:00,63.2,31.2,29.87,ESE,123,1.0,1.0,30,0.00,,,0.00,Wunderground v.1.15,2013-10-03 05:28:00,
2013-10-02 23:38:00,62.8,31.7,29.87,ESE,123,0.0,0.0,31,0.00,,,0.00,Wunderground v.1.15,2013-10-03 05:38:00,
2013-10-02 23:48:00,61.9,30.9,29.87,ESE,118,0.0,0.0,31,0.00,,,0.00,Wunderground v.1.15,2013-10-03 05:48:00,
2013-10-02 23:58:00,61.0,31.7,29.87,ESE,120,0.0,0.0,33,0.00,,,0.00,Wunderground v.1.15,2013-10-03 05:58:00,